Time;durP1;ratioP1;P1;durP2;ratioP2;P2;SDS_P1;SDS_P2;PMS_P1;PMS_P2;Temp;Humidity;BMP_temperature;BMP_pressure;BME280_temperature;BME280_humidity;BME280_pressure;Samples;Min_cycle;Max_cycle;Signal;HPM_P1;HPM_P2
2024/03/27 00:02:39;;;;;;;6.95;3.75;;;24.10;43.60;;;;;;6154158;28;80591;-58
2024/03/27 00:05:40;;;;;;;7.88;3.70;;;24.20;43.80;;;;;;6162586;28;80197;-58
2024/03/27 00:08:40;;;;;;;5.65;3.60;;;24.20;43.60;;;;;;6153955;28;80862;-58
2024/03/27 00:11:41;;;;;;;5.72;3.38;;;24.20;43.50;;;;;;6161040;28;80926;-57
2024/03/27 00:14:41;;;;;;;5.07;3.60;;;24.20;43.60;;;;;;6158145;28;80901;-57
2024/03/27 00:17:42;;;;;;;5.13;3.40;;;24.30;43.70;;;;;;6166191;28;80906;-58
2024/03/27 00:20:43;;;;;;;4.45;2.53;;;24.30;43.60;;;;;;6151529;28;80435;-59
2024/03/27 00:23:43;;;;;;;5.03;3.17;;;24.20;43.50;;;;;;6154213;28;81637;-59
2024/03/27 00:26:44;;;;;;;6.82;3.55;;;24.30;43.60;;;;;;6152812;28;80431;-60
2024/03/27 00:29:44;;;;;;;4.00;2.58;;;24.30;43.50;;;;;;6153483;28;80911;-60
2024/03/27 00:32:45;;;;;;;5.20;3.13;;;24.20;43.50;;;;;;6165638;28;80682;-64
2024/03/27 00:35:45;;;;;;;4.90;3.70;;;24.20;43.60;;;;;;6170848;28;80443;-63
2024/03/27 00:38:45;;;;;;;5.07;3.40;;;24.20;43.00;;;;;;6160594;28;81065;-63
2024/03/27 00:41:46;;;;;;;5.53;3.22;;;24.20;43.00;;;;;;6165164;28;80604;-62
2024/03/27 00:44:46;;;;;;;6.07;3.55;;;24.20;43.10;;;;;;6166541;28;80966;-61
2024/03/27 00:47:47;;;;;;;6.22;3.13;;;24.20;43.00;;;;;;6165935;28;80756;-62
2024/03/27 00:50:48;;;;;;;4.00;3.08;;;24.20;42.90;;;;;;6156515;28;80759;-62
2024/03/27 00:53:48;;;;;;;5.95;3.00;;;24.10;42.90;;;;;;6169631;28;80694;-63
2024/03/27 00:56:49;;;;;;;7.15;2.92;;;24.20;42.80;;;;;;6157816;28;80813;-63
2024/03/27 00:59:49;;;;;;;6.80;3.30;;;24.10;42.80;;;;;;6161554;28;82121;-63
2024/03/27 01:02:50;;;;;;;6.57;4.07;;;24.10;42.70;;;;;;6156098;28;81928;-63
2024/03/27 01:05:50;;;;;;;6.78;3.15;;;24.10;42.70;;;;;;6175998;28;80214;-63
2024/03/27 01:08:51;;;;;;;6.47;3.90;;;24.10;42.80;;;;;;6153626;28;80441;-62
2024/03/27 01:11:51;;;;;;;5.53;3.15;;;24.10;42.60;;;;;;6162775;28;80587;-62
2024/03/27 01:14:52;;;;;;;7.32;3.47;;;24.10;42.60;;;;;;6168341;28;80822;-61
2024/03/27 01:17:52;;;;;;;4.82;3.42;;;24.20;42.60;;;;;;6171111;28;81755;-61
2024/03/27 01:20:53;;;;;;;5.18;3.30;;;24.10;42.40;;;;;;6163923;28;81495;-60
2024/03/27 01:23:53;;;;;;;5.53;3.38;;;24.10;42.40;;;;;;6163085;28;80411;-62
2024/03/27 01:26:54;;;;;;;4.22;2.88;;;24.10;42.30;;;;;;6154240;28;80328;-60
2024/03/27 01:29:54;;;;;;;7.93;3.78;;;24.10;42.40;;;;;;6153948;28;80402;-55
2024/03/27 01:32:55;;;;;;;7.70;4.13;;;24.10;42.40;;;;;;6158367;28;81020;-55
2024/03/27 01:35:55;;;;;;;6.63;3.90;;;24.10;42.40;;;;;;6151847;28;80566;-56
2024/03/27 01:38:56;;;;;;;5.57;3.22;;;24.00;42.40;;;;;;6151654;28;80817;-53
2024/03/27 01:41:56;;;;;;;5.35;3.03;;;24.10;42.30;;;;;;6151769;28;80388;-53
2024/03/27 01:44:57;;;;;;;5.15;3.33;;;24.10;42.40;;;;;;6151461;28;80847;-55
2024/03/27 01:47:57;;;;;;;5.38;3.40;;;24.10;42.40;;;;;;6152608;28;80583;-63
2024/03/27 01:50:58;;;;;;;7.65;3.60;;;24.10;42.20;;;;;;6154070;28;80398;-61
2024/03/27 01:53:58;;;;;;;5.53;2.72;;;24.10;42.00;;;;;;6150424;28;80700;-62
2024/03/27 01:56:59;;;;;;;8.90;3.78;;;24.10;41.90;;;;;;6152800;28;80916;-62
2024/03/27 01:59:59;;;;;;;5.68;3.67;;;24.10;42.00;;;;;;6152922;28;82321;-63
2024/03/27 02:03:00;;;;;;;8.50;3.67;;;24.20;42.00;;;;;;6157227;28;80716;-62
2024/03/27 02:06:00;;;;;;;6.47;3.58;;;24.10;41.80;;;;;;6150651;28;80341;-62
2024/03/27 02:09:01;;;;;;;6.05;3.67;;;24.10;41.80;;;;;;6165014;28;80698;-62
2024/03/27 02:12:01;;;;;;;4.63;3.17;;;24.10;41.90;;;;;;6176345;28;82204;-61
2024/03/27 02:15:02;;;;;;;4.15;3.10;;;24.10;41.90;;;;;;6154136;28;86473;-61
2024/03/27 02:18:02;;;;;;;4.20;2.90;;;24.10;41.80;;;;;;6165282;28;80292;-62
2024/03/27 02:21:03;;;;;;;6.18;2.92;;;24.10;41.90;;;;;;6168852;28;81175;-63
2024/03/27 02:24:03;;;;;;;5.07;3.47;;;24.10;41.90;;;;;;6160354;28;80288;-63
2024/03/27 02:27:04;;;;;;;4.65;2.60;;;24.10;42.20;;;;;;6158888;28;81585;-62
2024/03/27 02:30:05;;;;;;;4.53;3.10;;;24.10;41.70;;;;;;6164170;28;80844;-62
2024/03/27 02:33:05;;;;;;;3.83;2.45;;;24.10;41.60;;;;;;6167567;28;81294;-62
2024/03/27 02:36:06;;;;;;;4.30;2.38;;;24.10;41.60;;;;;;6154958;28;81235;-62
2024/03/27 02:39:07;;;;;;;3.97;2.50;;;24.10;41.70;;;;;;6157007;28;81498;-63
2024/03/27 02:42:08;;;;;;;4.50;3.00;;;24.10;41.60;;;;;;6164320;28;83313;-63
2024/03/27 02:45:08;;;;;;;4.70;2.80;;;24.10;41.50;;;;;;6176765;28;80303;-62
2024/03/27 02:48:09;;;;;;;5.00;2.88;;;24.10;41.50;;;;;;6167822;28;80735;-61
2024/03/27 02:51:09;;;;;;;5.03;2.70;;;24.10;41.50;;;;;;6168558;28;83412;-63
2024/03/27 02:54:10;;;;;;;3.80;2.50;;;24.10;41.40;;;;;;6167658;28;80975;-62
2024/03/27 02:57:10;;;;;;;4.22;2.50;;;24.10;41.30;;;;;;6155834;28;81244;-63
2024/03/27 03:00:11;;;;;;;4.80;2.83;;;24.10;41.20;;;;;;6167827;28;81009;-62
2024/03/27 03:03:11;;;;;;;2.88;2.05;;;24.00;41.00;;;;;;6166573;28;81852;-61
2024/03/27 03:06:12;;;;;;;3.83;2.10;;;24.10;41.00;;;;;;6155397;28;80447;-63
2024/03/27 03:09:13;;;;;;;4.28;2.40;;;24.00;41.00;;;;;;6155724;28;80395;-60
2024/03/27 03:12:13;;;;;;;3.90;2.40;;;24.00;40.80;;;;;;6156724;28;80801;-63
2024/03/27 03:15:14;;;;;;;3.28;2.53;;;24.00;41.00;;;;;;6155593;28;80367;-63
2024/03/27 03:18:15;;;;;;;3.00;2.40;;;24.10;41.00;;;;;;6166833;28;79981;-59
2024/03/27 03:21:15;;;;;;;3.47;1.85;;;24.10;41.10;;;;;;6159303;28;80598;-56
2024/03/27 03:24:16;;;;;;;2.20;1.90;;;24.10;41.10;;;;;;6158192;28;80502;-57
2024/03/27 03:27:16;;;;;;;3.40;2.17;;;24.10;41.10;;;;;;6165271;28;80433;-58
2024/03/27 03:30:17;;;;;;;3.38;2.28;;;24.00;41.10;;;;;;6154048;28;81227;-59
2024/03/27 03:33:17;;;;;;;2.78;1.98;;;24.10;41.10;;;;;;6171279;28;80611;-58
2024/03/27 03:36:18;;;;;;;3.35;2.20;;;24.10;41.10;;;;;;6160457;28;80677;-59
2024/03/27 03:39:18;;;;;;;2.78;2.13;;;24.10;41.00;;;;;;6166846;28;80424;-60
2024/03/27 03:42:19;;;;;;;2.72;1.83;;;24.00;41.10;;;;;;6175769;28;80860;-59
2024/03/27 03:45:19;;;;;;;3.83;2.00;;;24.10;41.20;;;;;;6155814;28;80954;-58
2024/03/27 03:48:23;;;;;;;4.03;2.60;;;24.10;41.30;;;;;;6152966;28;80316;-56
2024/03/27 03:51:23;;;;;;;2.85;2.00;;;24.10;41.30;;;;;;6153435;28;80467;-57
2024/03/27 03:54:24;;;;;;;3.38;2.35;;;24.10;41.50;;;;;;6152980;28;80486;-56
2024/03/27 03:57:24;;;;;;;3.95;2.03;;;24.10;41.30;;;;;;6162761;28;80751;-58
2024/03/27 04:00:25;;;;;;;7.78;1.90;;;24.10;41.70;;;;;;6155557;28;82609;-56
2024/03/27 04:03:25;;;;;;;3.08;1.98;;;24.00;41.30;;;;;;6155408;28;80038;-58
2024/03/27 04:06:26;;;;;;;3.58;2.17;;;24.00;41.40;;;;;;6159017;28;80387;-51
2024/03/27 04:09:27;;;;;;;2.47;2.05;;;24.00;41.40;;;;;;6161548;28;80157;-51
2024/03/27 04:12:27;;;;;;;2.53;1.95;;;24.00;41.20;;;;;;6153578;28;81788;-53
2024/03/27 04:15:28;;;;;;;4.70;1.73;;;24.00;41.20;;;;;;6154457;28;80886;-48
2024/03/27 04:18:28;;;;;;;3.58;2.33;;;24.00;41.20;;;;;;6153052;28;80175;-53
2024/03/27 04:21:29;;;;;;;3.10;2.38;;;24.00;41.20;;;;;;6153395;28;81028;-52
2024/03/27 04:24:29;;;;;;;3.05;1.95;;;24.00;41.10;;;;;;6152703;28;80712;-51
2024/03/27 04:27:30;;;;;;;4.32;2.38;;;24.00;41.00;;;;;;6152686;28;80993;-54
2024/03/27 04:30:30;;;;;;;4.25;2.38;;;24.00;41.30;;;;;;6155386;28;82617;-51
2024/03/27 04:33:31;;;;;;;4.90;2.33;;;24.00;41.20;;;;;;6165985;28;80687;-47
2024/03/27 04:36:31;;;;;;;3.17;2.22;;;24.00;40.90;;;;;;6152239;28;80882;-58
2024/03/27 04:39:33;;;;;;;2.25;1.80;;;24.00;41.30;;;;;;6157245;28;80701;-54
2024/03/27 04:42:34;;;;;;;3.53;1.90;;;24.00;41.20;;;;;;6167725;28;80649;-58
2024/03/27 04:45:35;;;;;;;4.20;2.63;;;24.00;41.40;;;;;;6176688;28;80434;-54
2024/03/27 04:48:35;;;;;;;5.80;2.10;;;24.00;41.60;;;;;;6161591;28;80581;-54
2024/03/27 04:51:36;;;;;;;6.35;2.05;;;24.10;41.80;;;;;;6159411;28;80446;-62
2024/03/27 04:54:36;;;;;;;3.15;2.10;;;24.00;41.80;;;;;;6164826;28;80267;-61
2024/03/27 04:57:37;;;;;;;4.43;2.42;;;24.00;42.00;;;;;;6150608;28;88323;-63
2024/03/27 05:00:37;;;;;;;4.43;2.15;;;24.00;41.80;;;;;;6150348;28;80679;-64
2024/03/27 05:03:38;;;;;;;9.27;2.40;;;24.00;42.30;;;;;;6150008;28;81229;-67
2024/03/27 05:06:41;;;;;;;3.28;1.90;;;24.00;42.60;;;;;;6159665;28;80919;-62
2024/03/27 05:09:42;;;;;;;7.63;2.65;;;24.00;42.00;;;;;;6162433;28;81362;-55
2024/03/27 05:12:42;;;;;;;4.03;2.05;;;24.00;42.00;;;;;;6160601;28;80386;-56
2024/03/27 05:15:43;;;;;;;4.22;2.25;;;24.00;42.30;;;;;;6152856;28;81262;-55
2024/03/27 05:18:43;;;;;;;6.85;1.85;;;24.00;41.90;;;;;;6162879;28;80932;-57
2024/03/27 05:21:44;;;;;;;5.63;2.47;;;24.00;42.00;;;;;;6152895;28;81013;-59
2024/03/27 05:24:44;;;;;;;5.82;2.60;;;24.00;42.00;;;;;;6146615;28;81815;-55
2024/03/27 05:27:45;;;;;;;4.85;2.13;;;24.00;41.60;;;;;;6148594;28;80456;-59
2024/03/27 05:30:45;;;;;;;4.20;2.22;;;23.90;41.50;;;;;;6147511;28;80903;-57
2024/03/27 05:33:46;;;;;;;4.45;2.30;;;23.90;41.30;;;;;;6158085;28;80503;-56
2024/03/27 05:36:46;;;;;;;5.57;2.42;;;23.80;41.20;;;;;;6147963;28;80986;-58
2024/03/27 05:39:47;;;;;;;7.47;2.85;;;23.80;41.10;;;;;;6161123;28;80411;-57
2024/03/27 05:42:47;;;;;;;4.80;2.25;;;23.80;41.10;;;;;;6157420;28;80458;-58
2024/03/27 05:45:48;;;;;;;4.55;2.45;;;23.80;40.90;;;;;;6150155;28;81072;-58
2024/03/27 05:48:49;;;;;;;4.25;2.13;;;23.80;40.80;;;;;;6150363;28;83007;-58
2024/03/27 05:51:49;;;;;;;5.10;1.98;;;23.80;40.80;;;;;;6149421;28;80712;-57
2024/03/27 05:54:50;;;;;;;4.53;2.35;;;23.70;40.60;;;;;;6150978;28;80510;-56
2024/03/27 05:57:50;;;;;;;4.90;2.30;;;23.70;40.40;;;;;;6152404;28;80476;-57
2024/03/27 06:00:51;;;;;;;8.20;2.40;;;23.70;40.50;;;;;;6151772;28;80394;-59
2024/03/27 06:03:51;;;;;;;4.20;2.58;;;23.70;40.60;;;;;;6150973;28;80724;-58
2024/03/27 06:06:52;;;;;;;6.70;2.45;;;23.70;40.70;;;;;;6164149;28;82166;-57
2024/03/27 06:09:52;;;;;;;4.93;2.05;;;23.70;40.60;;;;;;6167199;28;85022;-56
2024/03/27 06:12:53;;;;;;;6.18;2.47;;;23.70;40.40;;;;;;6170939;28;80533;-56
2024/03/27 06:15:54;;;;;;;4.28;2.05;;;23.70;40.30;;;;;;6153973;28;80557;-57
2024/03/27 06:18:54;;;;;;;4.07;2.33;;;23.70;40.20;;;;;;6152230;28;80731;-58
2024/03/27 06:21:55;;;;;;;5.50;2.90;;;23.70;40.20;;;;;;6155598;28;83442;-59
2024/03/27 06:24:55;;;;;;;6.22;2.85;;;23.80;40.20;;;;;;6154157;28;80420;-58
2024/03/27 06:27:56;;;;;;;4.28;2.65;;;23.70;40.20;;;;;;6164026;28;80662;-58
2024/03/27 06:30:57;;;;;;;5.22;2.60;;;23.80;40.10;;;;;;6153139;28;80489;-57
2024/03/27 06:33:57;;;;;;;4.55;2.65;;;23.80;40.10;;;;;;6163737;28;82280;-58
2024/03/27 06:36:58;;;;;;;4.03;2.35;;;23.80;40.10;;;;;;6168538;28;80816;-57
2024/03/27 06:39:58;;;;;;;4.57;2.42;;;23.70;40.10;;;;;;6178216;28;81809;-59
2024/03/27 06:42:59;;;;;;;5.85;2.30;;;23.80;40.00;;;;;;6178706;28;80764;-49
2024/03/27 06:45:59;;;;;;;9.10;2.97;;;23.80;40.00;;;;;;6158968;28;80500;-48
2024/03/27 06:49:07;;;;;;;5.15;2.35;;;23.80;39.90;;;;;;6154153;28;81308;-49
2024/03/27 06:52:08;;;;;;;5.25;2.83;;;23.80;39.70;;;;;;6153865;28;81432;-51
2024/03/27 06:55:08;;;;;;;3.45;2.20;;;23.80;39.90;;;;;;6154349;28;82961;-48
2024/03/27 06:58:09;;;;;;;3.38;2.40;;;23.70;39.70;;;;;;6154880;28;80947;-50
2024/03/27 07:01:09;;;;;;;7.53;2.95;;;23.80;39.80;;;;;;6155044;28;80540;-58
2024/03/27 07:04:10;;;;;;;6.25;3.00;;;23.80;39.70;;;;;;6154304;28;80429;-58
2024/03/27 07:07:10;;;;;;;4.65;2.85;;;23.80;39.60;;;;;;6152816;28;80282;-58
2024/03/27 07:10:11;;;;;;;4.63;2.78;;;23.80;39.60;;;;;;6153617;28;80937;-57
2024/03/27 07:13:11;;;;;;;5.28;3.10;;;23.80;39.60;;;;;;6166777;28;80515;-58
2024/03/27 07:16:12;;;;;;;7.45;2.97;;;23.80;39.40;;;;;;6154101;28;82579;-58
2024/03/27 07:19:12;;;;;;;7.30;2.97;;;23.80;39.30;;;;;;6153732;28;80354;-52
2024/03/27 07:22:13;;;;;;;7.55;3.17;;;23.80;39.30;;;;;;6153385;28;80348;-53
2024/03/27 07:25:14;;;;;;;5.78;2.40;;;23.80;39.30;;;;;;6153695;28;80716;-49
2024/03/27 07:28:14;;;;;;;6.85;2.95;;;23.80;39.20;;;;;;6152991;28;80400;-48
2024/03/27 07:31:15;;;;;;;8.52;3.45;;;23.90;39.20;;;;;;6154450;28;81249;-49
2024/03/27 07:34:15;;;;;;;4.70;2.78;;;24.00;39.40;;;;;;6160626;28;81240;-49
2024/03/27 07:37:16;;;;;;;4.25;2.65;;;24.00;39.30;;;;;;6153355;28;81235;-57
2024/03/27 07:40:16;;;;;;;4.82;2.53;;;23.90;39.40;;;;;;6153412;28;81115;-54
2024/03/27 07:43:17;;;;;;;5.85;3.05;;;24.00;39.50;;;;;;6166385;28;80683;-53
2024/03/27 07:46:17;;;;;;;5.70;3.03;;;24.00;40.10;;;;;;6152346;28;80552;-51
2024/03/27 07:49:18;;;;;;;6.90;3.33;;;24.00;39.40;;;;;;6152865;28;81394;-54
2024/03/27 07:52:18;;;;;;;8.02;2.92;;;24.00;39.40;;;;;;6152198;28;80388;-55
2024/03/27 07:55:19;;;;;;;3.50;2.10;;;24.10;39.60;;;;;;6152734;28;80442;-54
2024/03/27 07:58:19;;;;;;;3.05;2.45;;;24.10;39.40;;;;;;6153063;28;80876;-55
2024/03/27 08:01:20;;;;;;;8.52;2.95;;;24.10;39.30;;;;;;6153420;28;81435;-55
2024/03/27 08:04:20;;;;;;;5.20;2.97;;;24.10;39.30;;;;;;6158894;28;82316;-55
2024/03/27 08:07:21;;;;;;;3.97;2.17;;;24.10;39.20;;;;;;6166366;28;80595;-55
2024/03/27 08:10:22;;;;;;;5.82;2.58;;;24.20;39.30;;;;;;6165563;28;80574;-53
2024/03/27 08:13:23;;;;;;;4.38;2.72;;;24.20;39.30;;;;;;6153483;28;81432;-52
2024/03/27 08:16:23;;;;;;;6.03;3.10;;;24.20;39.60;;;;;;6165724;28;80714;-49
2024/03/27 08:19:24;;;;;;;6.28;2.85;;;24.20;39.30;;;;;;6153275;28;80398;-52
2024/03/27 08:22:24;;;;;;;5.15;3.10;;;24.20;39.30;;;;;;6152213;28;80804;-46
2024/03/27 08:25:25;;;;;;;6.30;2.88;;;24.30;39.40;;;;;;6164103;28;83095;-50
2024/03/27 08:28:25;;;;;;;2.30;1.75;;;24.20;39.50;;;;;;6153089;28;80331;-50
2024/03/27 08:31:26;;;;;;;3.95;2.33;;;24.30;39.60;;;;;;6155111;28;82641;-56
2024/03/27 08:34:27;;;;;;;4.00;2.30;;;24.30;39.50;;;;;;6158762;28;80181;-57
2024/03/27 08:37:28;;;;;;;4.47;2.33;;;24.30;39.70;;;;;;6152479;28;80759;-55
2024/03/27 08:40:28;;;;;;;4.28;2.20;;;24.30;39.70;;;;;;6152663;28;80345;-56
2024/03/27 08:43:29;;;;;;;5.75;2.50;;;24.30;39.80;;;;;;6152302;28;80961;-56
2024/03/27 08:46:29;;;;;;;7.60;2.30;;;24.40;40.00;;;;;;6152574;28;80912;-56
2024/03/27 08:49:30;;;;;;;4.65;2.45;;;24.40;39.60;;;;;;6152217;28;81897;-50
2024/03/27 08:52:30;;;;;;;4.72;2.17;;;24.40;39.80;;;;;;6150320;28;80591;-51
2024/03/27 08:55:31;;;;;;;4.05;1.98;;;24.40;39.70;;;;;;6152326;28;81158;-50
2024/03/27 08:58:31;;;;;;;4.13;2.33;;;24.40;39.80;;;;;;6153789;28;80624;-47
2024/03/27 09:01:32;;;;;;;4.18;2.22;;;24.40;39.90;;;;;;6161140;28;80894;-48
2024/03/27 09:04:35;;;;;;;4.82;2.28;;;24.50;39.80;;;;;;6155253;28;81622;-46
2024/03/27 09:07:35;;;;;;;4.03;2.20;;;24.50;40.00;;;;;;6162014;28;80607;-48
2024/03/27 09:10:36;;;;;;;6.50;2.53;;;24.50;40.10;;;;;;6164420;28;80933;-47
2024/03/27 09:13:36;;;;;;;6.28;2.30;;;24.50;40.00;;;;;;6152065;28;80158;-49
2024/03/27 09:16:37;;;;;;;8.10;2.30;;;24.60;40.10;;;;;;6151680;28;81350;-50
2024/03/27 09:19:38;;;;;;;3.72;1.92;;;24.60;40.20;;;;;;6152053;28;81876;-49
2024/03/27 09:22:38;;;;;;;4.78;2.30;;;24.60;40.20;;;;;;6151571;28;80509;-49
2024/03/27 09:25:39;;;;;;;2.83;1.70;;;24.60;40.20;;;;;;6151542;28;80494;-58
2024/03/27 09:28:39;;;;;;;3.53;2.00;;;24.60;40.10;;;;;;6152077;28;80661;-58
2024/03/27 09:31:40;;;;;;;4.00;1.95;;;24.60;40.20;;;;;;6169388;28;83563;-58
2024/03/27 09:34:40;;;;;;;7.75;2.30;;;24.60;40.30;;;;;;6156013;28;80583;-58
2024/03/27 09:37:41;;;;;;;5.90;2.45;;;24.60;40.40;;;;;;6156371;28;80647;-58
2024/03/27 09:40:41;;;;;;;6.72;2.70;;;24.70;40.50;;;;;;6162083;28;80653;-56
2024/03/27 09:43:42;;;;;;;6.40;1.90;;;24.70;40.50;;;;;;6161508;28;81459;-57
2024/03/27 09:46:42;;;;;;;2.85;1.83;;;24.70;40.50;;;;;;6151952;28;80662;-58
2024/03/27 09:49:43;;;;;;;3.92;2.20;;;24.70;40.40;;;;;;6162555;28;81059;-59
2024/03/27 09:52:43;;;;;;;3.20;1.80;;;24.70;40.50;;;;;;6161272;28;83426;-58
2024/03/27 09:55:44;;;;;;;3.92;2.08;;;24.80;40.50;;;;;;6156478;28;83601;-57
2024/03/27 09:58:45;;;;;;;4.35;2.30;;;24.80;40.60;;;;;;6151436;28;80506;-60
2024/03/27 10:01:45;;;;;;;6.32;1.98;;;24.80;40.40;;;;;;6151361;28;81580;-59
2024/03/27 10:04:46;;;;;;;3.42;2.03;;;24.80;40.40;;;;;;6151463;28;80355;-58
2024/03/27 10:07:46;;;;;;;3.03;1.85;;;24.90;40.50;;;;;;6151693;28;80741;-59
2024/03/27 10:10:46;;;;;;;2.63;2.05;;;24.90;40.40;;;;;;6150689;28;82914;-58
2024/03/27 10:13:48;;;;;;;4.07;2.13;;;24.90;40.40;;;;;;6152025;28;80374;-59
2024/03/27 10:16:49;;;;;;;5.00;2.45;;;24.90;40.40;;;;;;6149625;28;81165;-58
2024/03/27 10:19:49;;;;;;;4.00;1.98;;;24.90;40.50;;;;;;6151097;28;80597;-59
2024/03/27 10:22:50;;;;;;;4.25;1.90;;;25.00;40.50;;;;;;6151670;28;80652;-65
2024/03/27 10:25:50;;;;;;;2.83;1.70;;;25.00;40.60;;;;;;6150685;28;80664;-65
2024/03/27 10:28:51;;;;;;;3.25;1.88;;;25.00;40.60;;;;;;6151424;28;81553;-66
2024/03/27 10:31:51;;;;;;;3.92;1.80;;;25.00;40.50;;;;;;6159358;28;81483;-64
2024/03/27 10:34:52;;;;;;;3.50;1.83;;;25.10;40.60;;;;;;6167619;28;81495;-65
2024/03/27 10:37:53;;;;;;;3.53;2.15;;;25.10;40.60;;;;;;6152953;28;81975;-65
2024/03/27 10:40:53;;;;;;;2.70;1.90;;;25.10;40.50;;;;;;6150304;28;81426;-52
2024/03/27 10:43:54;;;;;;;3.13;1.88;;;25.10;40.60;;;;;;6150718;28;83595;-49
2024/03/27 10:46:54;;;;;;;2.03;1.63;;;25.10;40.50;;;;;;6150693;28;80717;-51
2024/03/27 10:49:55;;;;;;;3.13;2.03;;;25.20;40.70;;;;;;6150054;28;80513;-52
2024/03/27 10:52:55;;;;;;;2.17;1.70;;;25.20;40.60;;;;;;6155843;28;80603;-49
2024/03/27 10:55:56;;;;;;;3.60;1.90;;;25.20;40.60;;;;;;6158356;28;81034;-50
2024/03/27 10:58:56;;;;;;;3.22;1.88;;;25.20;40.70;;;;;;6154137;28;82801;-48
2024/03/27 11:01:57;;;;;;;4.53;2.35;;;25.30;40.80;;;;;;6150503;28;81139;-48
2024/03/27 11:04:59;;;;;;;2.88;2.13;;;25.30;40.70;;;;;;6156567;28;80995;-48
2024/03/27 11:07:59;;;;;;;4.60;2.22;;;25.30;40.70;;;;;;6161444;28;80599;-51
2024/03/27 11:11:00;;;;;;;3.15;1.90;;;25.30;40.70;;;;;;6154616;28;80294;-51
2024/03/27 11:14:00;;;;;;;5.53;1.80;;;25.30;40.70;;;;;;6155121;28;80610;-47
2024/03/27 11:17:02;;;;;;;2.53;1.70;;;25.30;40.70;;;;;;6155796;28;80297;-56
2024/03/27 11:20:04;;;;;;;3.83;2.45;;;25.30;40.80;;;;;;6154545;28;80796;-55
2024/03/27 11:23:04;;;;;;;3.35;1.90;;;25.30;40.70;;;;;;6153785;28;80437;-55
2024/03/27 11:26:05;;;;;;;2.38;2.03;;;25.30;40.70;;;;;;6153133;28;80384;-54
2024/03/27 11:29:05;;;;;;;2.78;1.60;;;25.40;40.80;;;;;;6153540;28;80297;-56
2024/03/27 11:32:09;;;;;;;3.22;1.70;;;25.40;40.80;;;;;;6175177;28;81001;-57
2024/03/27 11:35:09;;;;;;;3.22;2.05;;;25.40;40.80;;;;;;6154108;28;81600;-47
2024/03/27 11:38:10;;;;;;;1.92;1.52;;;25.40;40.90;;;;;;6153924;28;80674;-51
2024/03/27 11:41:10;;;;;;;2.72;1.63;;;25.30;40.90;;;;;;6153509;28;80325;-49
2024/03/27 11:44:12;;;;;;;2.08;1.58;;;25.40;40.90;;;;;;6164476;28;80979;-49
2024/03/27 11:47:12;;;;;;;2.42;1.73;;;25.40;41.00;;;;;;6154075;28;81822;-51
2024/03/27 11:50:13;;;;;;;2.92;1.58;;;25.40;41.00;;;;;;6163231;28;81486;-52
2024/03/27 11:53:14;;;;;;;6.72;1.63;;;25.40;41.10;;;;;;6154345;28;80956;-58
2024/03/27 11:56:14;;;;;;;4.32;1.90;;;25.40;41.10;;;;;;6153605;28;82717;-57
2024/03/27 11:59:15;;;;;;;2.63;1.60;;;25.40;41.20;;;;;;6153675;28;80966;-56
2024/03/27 12:02:15;;;;;;;2.45;1.70;;;25.40;41.10;;;;;;6165902;28;80402;-57
2024/03/27 12:05:16;;;;;;;3.38;1.88;;;25.40;41.30;;;;;;6154893;28;80397;-56
2024/03/27 12:08:16;;;;;;;2.47;1.90;;;25.40;41.20;;;;;;6152868;28;80409;-56
2024/03/27 12:11:17;;;;;;;1.75;1.60;;;25.40;41.20;;;;;;6165544;28;80440;-59
2024/03/27 12:14:17;;;;;;;3.35;1.70;;;25.50;41.20;;;;;;6153754;28;80341;-58
2024/03/27 12:17:18;;;;;;;2.25;1.77;;;25.50;41.30;;;;;;6152988;28;81566;-59
2024/03/27 12:20:18;;;;;;;3.35;1.70;;;25.50;41.30;;;;;;6153342;28;81577;-59
2024/03/27 12:23:19;;;;;;;2.65;1.67;;;25.40;41.20;;;;;;6152986;28;80426;-57
2024/03/27 12:26:20;;;;;;;2.28;1.58;;;25.40;41.30;;;;;;6153776;28;80386;-58
2024/03/27 12:29:20;;;;;;;2.33;1.60;;;25.50;41.40;;;;;;6155722;28;82149;-68
2024/03/27 12:32:21;;;;;;;2.08;1.50;;;25.50;41.40;;;;;;6175684;28;80566;-66
2024/03/27 12:35:22;;;;;;;3.30;1.77;;;25.50;41.30;;;;;;6153159;28;80221;-68
2024/03/27 12:38:22;;;;;;;2.58;1.83;;;25.50;41.20;;;;;;6152840;28;85083;-69
2024/03/27 12:41:23;;;;;;;3.50;1.67;;;25.50;41.20;;;;;;6166615;28;80341;-68
2024/03/27 12:44:23;;;;;;;5.22;1.85;;;25.50;41.40;;;;;;6156057;28;80998;-68
2024/03/27 12:47:24;;;;;;;3.08;1.65;;;25.50;41.40;;;;;;6153469;28;81260;-59
2024/03/27 12:50:24;;;;;;;2.40;1.92;;;25.50;41.40;;;;;;6151334;28;80483;-49
2024/03/27 12:53:25;;;;;;;2.03;1.65;;;25.50;41.40;;;;;;6152157;28;80987;-51
2024/03/27 12:56:25;;;;;;;2.42;1.60;;;25.50;41.50;;;;;;6152691;28;83494;-50
2024/03/27 12:59:26;;;;;;;3.67;1.83;;;25.50;41.40;;;;;;6152867;28;80394;-47
2024/03/27 13:02:26;;;;;;;2.28;1.42;;;25.50;41.50;;;;;;6151210;28;81438;-54
2024/03/27 13:05:27;;;;;;;4.28;1.52;;;25.50;41.50;;;;;;6161263;28;81445;-48
2024/03/27 13:08:27;;;;;;;3.25;1.95;;;25.50;41.30;;;;;;6155120;28;80318;-54
2024/03/27 13:11:28;;;;;;;3.22;1.90;;;25.50;41.30;;;;;;6152084;28;81181;-54
2024/03/27 13:14:28;;;;;;;2.67;1.80;;;25.50;41.20;;;;;;6151567;28;80256;-55
2024/03/27 13:17:29;;;;;;;2.17;1.48;;;25.50;41.30;;;;;;6152310;28;81115;-57
2024/03/27 13:20:29;;;;;;;1.50;1.30;;;25.50;41.40;;;;;;6152605;28;80429;-53
2024/03/27 13:23:30;;;;;;;1.58;1.38;;;25.50;41.40;;;;;;6152023;28;80586;-57
2024/03/27 13:26:30;;;;;;;1.80;1.33;;;25.50;41.40;;;;;;6151732;28;81330;-53
2024/03/27 13:29:31;;;;;;;2.65;1.50;;;25.50;41.30;;;;;;6150191;28;80510;-49
2024/03/27 13:32:31;;;;;;;1.55;1.30;;;25.50;41.20;;;;;;6161725;28;81042;-49
2024/03/27 13:35:32;;;;;;;3.22;1.35;;;25.50;41.30;;;;;;6149969;28;81448;-49
2024/03/27 13:38:32;;;;;;;2.17;1.60;;;25.50;41.20;;;;;;6152750;28;80335;-50
2024/03/27 13:41:33;;;;;;;1.70;1.35;;;25.60;41.30;;;;;;6156852;28;81135;-53
2024/03/27 13:44:34;;;;;;;1.92;1.10;;;25.60;41.30;;;;;;6150875;28;80795;-57
2024/03/27 13:47:34;;;;;;;2.92;1.58;;;25.60;41.30;;;;;;6151587;28;81081;-60
2024/03/27 13:50:35;;;;;;;2.25;1.50;;;25.60;41.20;;;;;;6150801;28;80533;-59
2024/03/27 13:53:35;;;;;;;2.53;1.48;;;25.50;41.20;;;;;;6151514;28;80369;-58
2024/03/27 13:56:36;;;;;;;1.90;1.50;;;25.60;41.30;;;;;;6150853;28;80586;-59
2024/03/27 13:59:37;;;;;;;2.50;1.35;;;25.60;41.30;;;;;;6152754;28;80393;-58
2024/03/27 14:02:37;;;;;;;2.25;1.42;;;25.50;41.20;;;;;;6152499;28;80309;-49
2024/03/27 14:05:38;;;;;;;2.00;1.30;;;25.50;41.30;;;;;;6162819;28;80620;-48
2024/03/27 14:08:38;;;;;;;2.28;1.40;;;25.50;41.20;;;;;;6153292;28;80264;-47
2024/03/27 14:11:39;;;;;;;1.35;1.10;;;25.50;41.40;;;;;;6150987;28;80309;-51
2024/03/27 14:14:39;;;;;;;2.25;1.30;;;25.50;41.30;;;;;;6151288;28;81272;-50
2024/03/27 14:17:40;;;;;;;3.35;1.00;;;25.40;41.20;;;;;;6150434;28;80716;-52
2024/03/27 14:20:41;;;;;;;1.65;1.40;;;25.40;41.40;;;;;;6144362;28;80273;-55
2024/03/27 14:23:42;;;;;;;3.90;1.30;;;25.30;41.30;;;;;;6135939;28;80430;-57
2024/03/27 14:26:42;;;;;;;1.73;1.33;;;25.30;41.30;;;;;;6154953;28;80726;-56
2024/03/27 14:29:43;;;;;;;3.28;1.40;;;25.30;41.30;;;;;;6155320;28;81350;-56
2024/03/27 14:32:43;;;;;;;3.13;1.33;;;25.30;41.80;;;;;;6170922;28;80208;-59
2024/03/27 14:35:44;;;;;;;8.68;1.55;;;25.30;42.00;;;;;;6160406;28;80595;-59
2024/03/27 14:38:45;;;;;;;3.63;1.40;;;25.30;41.90;;;;;;6161795;28;80310;-48
2024/03/27 14:41:45;;;;;;;2.80;1.45;;;25.30;42.10;;;;;;6153987;28;80506;-50
2024/03/27 14:44:46;;;;;;;7.15;1.73;;;25.30;42.10;;;;;;6152675;28;81691;-53
2024/03/27 14:47:47;;;;;;;8.52;1.58;;;25.20;42.20;;;;;;6156605;28;81583;-48
2024/03/27 14:50:47;;;;;;;2.22;1.80;;;25.20;42.20;;;;;;6153935;28;83418;-48
2024/03/27 14:53:48;;;;;;;4.30;1.30;;;25.20;42.20;;;;;;6157429;28;80510;-48
2024/03/27 14:56:48;;;;;;;4.13;1.83;;;25.10;42.40;;;;;;6156914;28;82080;-47
2024/03/27 14:59:49;;;;;;;5.22;1.38;;;25.10;42.30;;;;;;6164722;28;80414;-52
2024/03/27 15:02:49;;;;;;;5.20;1.35;;;25.10;42.20;;;;;;6173577;28;80831;-46
2024/03/27 15:05:50;;;;;;;6.15;1.70;;;25.10;42.30;;;;;;6177427;28;80745;-49
2024/03/27 15:08:50;;;;;;;2.70;1.50;;;25.10;42.60;;;;;;6154873;28;80902;-49
2024/03/27 15:11:51;;;;;;;2.72;1.35;;;25.10;42.30;;;;;;6158633;28;81153;-49
2024/03/27 15:14:51;;;;;;;3.92;1.30;;;25.10;42.40;;;;;;6158801;28;80337;-56
2024/03/27 15:17:52;;;;;;;5.68;1.88;;;25.10;42.50;;;;;;6156808;28;81287;-58
2024/03/27 15:20:52;;;;;;;5.20;1.80;;;25.10;42.50;;;;;;6165182;28;80417;-57
2024/03/27 15:23:53;;;;;;;2.10;1.55;;;25.10;42.70;;;;;;6174581;28;80394;-58
2024/03/27 15:26:53;;;;;;;2.63;1.50;;;25.10;42.70;;;;;;6169641;28;80917;-58
2024/03/27 15:29:54;;;;;;;4.28;1.48;;;25.10;42.60;;;;;;6171314;28;80526;-55
2024/03/27 15:32:55;;;;;;;3.75;1.50;;;25.10;42.60;;;;;;6172169;28;80924;-56
2024/03/27 15:35:55;;;;;;;1.67;1.15;;;25.00;42.60;;;;;;6161793;28;80552;-57
2024/03/27 15:38:56;;;;;;;1.92;1.40;;;25.10;43.10;;;;;;6168849;28;80411;-52
2024/03/27 15:41:57;;;;;;;2.53;1.50;;;25.00;42.80;;;;;;6152141;28;80964;-57